Time;durP1;ratioP1;P1;durP2;ratioP2;P2;SDS_P1;SDS_P2;PMS_P1;PMS_P2;Temp;Humidity;BMP_temperature;BMP_pressure;BME280_temperature;BME280_humidity;BME280_pressure;Samples;Min_cycle;Max_cycle;Signal;HPM_P1;HPM_P2
2021/12/01 00:02:13;;;;;;;24.93;13.20;;;;;;;-3.81;100.00;60400.38;5092116;28;20437;-75
2021/12/01 00:04:40;;;;;;;29.80;13.03;;;;;;;-2.33;100.00;60565.53;5095087;28;20499;-77
2021/12/01 00:07:11;;;;;;;32.07;11.97;;;;;;;-3.99;100.00;60388.84;5095078;28;20441;-78
2021/12/01 00:09:41;;;;;;;22.63;9.73;;;;;;;-2.48;100.00;60544.69;5094881;28;20521;-77
2021/12/01 00:12:10;;;;;;;27.00;11.40;;;;;;;-3.97;100.00;60386.00;5094642;28;20449;-75
2021/12/01 00:14:42;;;;;;;17.07;9.00;;;;;;;-4.39;100.00;60344.72;5094937;28;20940;-77
2021/12/01 00:17:12;;;;;;;21.93;9.93;;;;;;;-3.88;100.00;60397.97;5094486;28;20445;-77
2021/12/01 00:19:46;;;;;;;19.42;8.88;;;;;;;-2.67;100.00;60528.19;5094772;28;20593;-75
2021/12/01 00:25:00;;;;;;;17.00;8.38;;;;;;;-3.55;100.00;60433.31;5094279;28;20754;-76
2021/12/01 00:27:28;;;;;;;16.33;8.47;;;;;;;-2.69;100.00;60523.56;5094887;28;20216;-77
2021/12/01 00:29:57;;;;;;;15.87;7.43;;;;;;;-2.60;100.00;60535.59;5094383;28;20437;-79
2021/12/01 00:32:26;;;;;;;19.53;6.83;;;;;;;-4.22;100.00;60382.00;5094321;28;20495;-76
2021/12/01 00:34:58;;;;;;;13.52;6.40;;;;;;;-3.84;100.00;60407.19;5093997;28;20442;-75
2021/12/01 00:37:27;;;;;;;11.43;6.17;;;;;;;-2.48;100.00;60545.22;5073862;28;20208;-76
2021/12/01 00:40:01;;;;;;;13.60;6.40;;;;;;;-3.80;100.00;60416.38;5056195;28;20948;-76
2021/12/01 00:42:32;;;;;;;11.53;5.73;;;;;;;-2.46;100.00;60551.81;5073935;28;20450;-75
2021/12/01 00:45:09;;;;;;;12.88;6.03;;;;;;;-2.59;100.00;60533.59;5073843;28;20832;-76
2021/12/01 00:47:44;;;;;;;13.07;6.88;;;;;;;-3.57;100.00;60423.22;5073878;28;20265;-75
2021/12/01 00:50:12;;;;;;;11.30;5.90;;;;;;;-3.60;100.00;60430.53;5074397;28;20202;-78
2021/12/01 00:52:41;;;;;;;13.63;6.57;;;;;;;-4.30;100.00;60359.72;5073689;28;20633;-77
2021/12/01 00:55:14;;;;;;;14.07;6.25;;;;;;;-2.41;100.00;60542.13;5073935;28;20442;-76
2021/12/01 00:57:44;;;;;;;13.50;6.25;;;;;;;-3.66;100.00;60421.69;5073337;28;20200;-79
2021/12/01 01:00:15;;;;;;;12.03;5.83;;;;;;;-2.36;100.00;60557.38;5073915;28;20284;-77
2021/12/01 01:02:45;;;;;;;10.32;6.03;;;;;;;-2.39;100.00;60554.22;5073543;28;20442;-76
2021/12/01 01:05:14;;;;;;;19.35;7.75;;;;;;;-2.50;100.00;60542.59;5073468;28;20205;-76
2021/12/01 01:10:45;;;;;;;17.50;9.23;;;;;;;-2.52;100.00;60540.47;5072010;28;20582;-77
2021/12/01 01:16:23;;;;;;;18.13;7.27;;;;;;;-2.35;100.00;60558.44;5073486;28;20426;-76
2021/12/01 01:18:55;;;;;;;13.03;6.70;;;;;;;-2.42;100.00;60551.03;5073064;28;20439;-77
2021/12/01 01:21:26;;;;;;;12.63;6.43;;;;;;;-2.45;100.00;60545.38;5074046;28;20450;-77
2021/12/01 01:23:55;;;;;;;13.00;5.70;;;;;;;-2.35;100.00;60558.44;5073263;28;20480;-76
2021/12/01 01:26:28;;;;;;;12.13;6.03;;;;;;;-2.41;100.00;60549.63;5078084;28;20506;-75
2021/12/01 01:28:55;;;;;;;19.57;6.33;;;;;;;-2.20;100.00;60574.28;5078528;28;20431;-77
2021/12/01 01:31:36;;;;;;;11.65;5.82;;;;;;;-2.15;100.00;60579.59;5073080;28;20443;-78
2021/12/01 01:34:07;;;;;;;8.90;5.67;;;;;;;-3.43;100.00;60455.41;5073018;28;20207;-76
2021/12/01 01:36:47;;;;;;;12.00;5.63;;;;;;;-2.12;100.00;60582.75;5086604;28;20485;-76
2021/12/01 01:39:35;;;;;;;10.80;5.47;;;;;;;-2.13;100.00;60581.69;5093149;28;20788;-76
2021/12/01 01:42:02;;;;;;;10.43;5.43;;;;;;;-3.59;100.00;60428.56;5092578;28;20503;-78
2021/12/01 01:44:32;;;;;;;12.18;6.20;;;;;;;-2.12;100.00;60580.78;5092164;28;20295;-77
2021/12/01 01:47:07;;;;;;;12.35;6.38;;;;;;;-2.04;100.00;60591.19;5092825;28;20246;-77
2021/12/01 01:52:16;;;;;;;12.17;5.47;;;;;;;-1.99;100.00;60596.50;5090410;28;20441;-76
2021/12/01 01:54:43;;;;;;;15.47;6.07;;;;;;;-3.44;100.00;60446.91;5092081;28;20437;-76
2021/12/01 01:57:12;;;;;;;11.57;5.37;;;;;;;-3.21;100.00;60476.13;5074941;28;20437;-77
2021/12/01 01:59:41;;;;;;;13.85;6.05;;;;;;;-1.95;100.00;60603.72;5094686;28;20442;-77
2021/12/01 02:02:13;;;;;;;13.07;4.97;;;;;;;-1.77;100.00;60624.75;5092676;28;20200;-77
2021/12/01 02:04:45;;;;;;;15.63;5.80;;;;;;;-1.92;100.00;60603.88;5092572;28;20444;-76
2021/12/01 02:07:21;;;;;;;11.63;5.13;;;;;;;-2.10;100.00;60585.38;5074225;28;20520;-77
2021/12/01 02:09:58;;;;;;;10.93;5.57;;;;;;;-2.98;100.00;60492.97;5092264;28;20443;-76
2021/12/01 02:12:35;;;;;;;13.97;5.47;;;;;;;-2.29;100.00;60565.31;5092551;28;20479;-76
2021/12/01 02:15:04;;;;;;;14.03;6.70;;;;;;;-2.60;100.00;60527.56;5091870;28;20947;-76
2021/12/01 02:17:49;;;;;;;15.27;7.67;;;;;;;-2.12;100.00;60587.72;5092767;28;20518;-76
2021/12/01 02:20:44;;;;;;;18.83;6.47;;;;;;;-2.14;100.00;60580.63;5089965;28;20434;-74
2021/12/01 02:23:18;;;;;;;10.13;5.53;;;;;;;-1.78;100.00;60623.69;5092191;28;20812;-76
2021/12/01 02:25:47;;;;;;;12.83;5.73;;;;;;;-1.77;100.00;60625.25;5092297;28;20983;-78
2021/12/01 02:28:15;;;;;;;15.03;7.77;;;;;;;-3.51;100.00;60446.97;5093551;28;20457;-77
2021/12/01 02:30:44;;;;;;;11.05;6.13;;;;;;;-3.01;100.00;60494.75;5091846;28;20971;-76
2021/12/01 02:33:11;;;;;;;9.20;5.47;;;;;;;-1.65;100.00;60637.44;5092531;28;20221;-75
2021/12/01 02:35:42;;;;;;;11.00;5.53;;;;;;;-3.39;100.00;60447.19;5091891;28;20430;-75
2021/12/01 02:38:12;;;;;;;9.53;5.77;;;;;;;-2.94;100.00;60501.63;5092038;28;20422;-76
2021/12/01 02:40:42;;;;;;;9.43;5.03;;;;;;;-2.08;100.00;60587.50;5091938;28;20445;-77
2021/12/01 02:43:09;;;;;;;9.40;5.10;;;;;;;-1.55;100.00;60648.00;5091976;28;20481;-76
2021/12/01 02:45:39;;;;;;;9.63;5.00;;;;;;;-3.07;100.00;60488.44;5091725;28;20441;-77
2021/12/01 02:48:10;;;;;;;14.00;5.33;;;;;;;-1.45;100.00;60658.59;5091877;28;20434;-80
2021/12/01 02:50:43;;;;;;;8.70;4.53;;;;;;;-1.49;100.00;60648.81;5092275;28;20440;-75
2021/12/01 02:53:14;;;;;;;8.53;4.43;;;;;;;-1.76;100.00;60625.78;5092276;28;20472;-78
2021/12/01 02:55:51;;;;;;;7.87;4.40;;;;;;;-1.58;100.00;60641.78;5091935;28;20441;-77
2021/12/01 02:58:31;;;;;;;7.57;4.50;;;;;;;-1.45;100.00;60653.59;5091609;28;20438;-77
2021/12/01 03:01:01;;;;;;;7.47;3.83;;;;;;;-2.52;100.00;60537.97;5091789;28;20952;-78
2021/12/01 03:03:32;;;;;;;7.20;4.33;;;;;;;-1.28;100.00;60676.03;5091584;28;20506;-76
2021/12/01 03:06:07;;;;;;;7.97;3.93;;;;;;;-2.65;100.00;60522.81;5091309;28;20489;-77
2021/12/01 03:08:37;;;;;;;9.90;4.50;;;;;;;-3.14;100.00;60478.56;5092241;28;20978;-76
2021/12/01 03:11:10;;;;;;;7.40;3.90;;;;;;;-1.71;100.00;60626.09;5091097;28;20454;-75
2021/12/01 03:13:37;;;;;;;5.33;3.63;;;;;;;-2.71;100.00;60525.91;5091163;28;20820;-77
2021/12/01 03:18:51;;;;;;;10.20;4.20;;;;;;;-2.91;100.00;60500.34;5090714;28;20449;-76
2021/12/01 03:24:03;;;;;;;7.93;3.87;;;;;;;-0.95;100.00;60711.47;5090039;28;21089;-76
2021/12/01 03:26:48;;;;;;;6.70;3.53;;;;;;;-0.91;100.00;60715.19;5091131;28;20478;-76
2021/12/01 03:29:16;;;;;;;8.90;4.57;;;;;;;-1.11;100.00;60687.06;5091343;28;20438;-75
2021/12/01 03:31:47;;;;;;;8.00;4.30;;;;;;;-1.34;100.00;60675.19;5089502;28;20475;-78
2021/12/01 03:34:23;;;;;;;9.23;4.87;;;;;;;-1.50;100.00;60648.28;5091697;28;20418;-79
2021/12/01 03:36:51;;;;;;;8.97;4.87;;;;;;;-1.55;100.00;60648.00;5093826;28;20484;-74
2021/12/01 03:39:23;;;;;;;8.07;4.03;;;;;;;-1.53;100.00;60642.63;5101642;28;20437;-76
2021/12/01 03:42:01;;;;;;;15.03;4.80;;;;;;;-1.50;100.00;60647.75;5096055;28;20495;-78
2021/12/01 03:44:30;;;;;;;12.33;4.87;;;;;;;-2.23;100.00;60571.13;5094929;28;20452;-78
2021/12/01 03:47:00;;;;;;;10.70;5.70;;;;;;;-2.00;100.00;60595.41;5095130;28;21007;-75
2021/12/01 03:49:39;;;;;;;8.07;4.60;;;;;;;-3.31;100.00;60455.63;5095945;28;20437;-77
2021/12/01 03:52:17;;;;;;;25.00;5.83;;;;;;;-1.65;100.00;60631.91;5095585;28;20438;-78
2021/12/01 03:57:27;;;;;;;8.52;4.15;;;;;;;-2.13;100.00;60581.69;5093467;28;20437;-79
2021/12/01 03:59:57;;;;;;;12.93;6.83;;;;;;;-1.60;100.00;60642.16;5095752;28;20223;-75
2021/12/01 04:02:26;;;;;;;13.20;7.03;;;;;;;-3.34;100.00;60454.97;5094758;28;20503;-74
2021/12/01 04:04:56;;;;;;;13.87;5.87;;;;;;;-1.53;100.00;60645.13;5094554;28;20450;-74
2021/12/01 04:07:27;;;;;;;10.97;5.20;;;;;;;-1.77;100.00;60619.75;5100116;28;20477;-77
2021/12/01 04:09:57;;;;;;;12.20;5.80;;;;;;;-2.69;100.00;60523.56;5095120;28;20456;-77
2021/12/01 04:12:25;;;;;;;22.87;12.37;;;;;;;-1.35;100.00;60664.16;5094596;28;20468;-76
2021/12/01 04:14:58;;;;;;;11.67;6.80;;;;;;;-2.89;100.00;60499.44;5076614;28;20477;-76
2021/12/01 04:17:27;;;;;;;11.73;5.73;;;;;;;-1.34;100.00;60664.69;5094743;28;20932;-75
2021/12/01 04:19:55;;;;;;;10.97;5.07;;;;;;;-1.39;100.00;60659.41;5094536;28;20434;-78
2021/12/01 04:22:25;;;;;;;12.70;7.57;;;;;;;-2.45;100.00;60550.38;5094280;28;20449;-78
2021/12/01 04:24:53;;;;;;;13.67;6.03;;;;;;;-1.42;100.00;60661.75;5094905;28;20803;-75
2021/12/01 04:27:22;;;;;;;17.23;7.60;;;;;;;-1.36;100.00;60663.09;5094327;28;20496;-76
2021/12/01 04:29:49;;;;;;;13.83;6.00;;;;;;;-2.80;100.00;60511.97;5094332;28;20426;-76
2021/12/01 04:32:18;;;;;;;33.10;12.20;;;;;;;-2.94;100.00;60506.63;5093851;28;20448;-75
2021/12/01 04:34:46;;;;;;;44.37;15.27;;;;;;;-1.47;100.00;60650.94;5094585;28;20453;-78
2021/12/01 04:37:14;;;;;;;82.13;25.90;;;;;;;-1.56;100.00;60641.41;5094055;28;20480;-79
2021/12/01 04:39:44;;;;;;;81.90;25.20;;;;;;;-1.78;100.00;60616.19;5076028;28;20826;-75
2021/12/01 04:42:14;;;;;;;72.83;23.20;;;;;;;-3.39;100.00;60451.63;5094072;28;20458;-75
2021/12/01 04:44:44;;;;;;;56.90;20.67;;;;;;;-2.93;100.00;60503.22;5093896;28;20437;-76
2021/12/01 04:47:13;;;;;;;52.00;16.87;;;;;;;-2.15;100.00;60575.09;5093372;28;20493;-78
2021/12/01 04:49:45;;;;;;;23.83;10.90;;;;;;;-2.90;100.00;60500.88;5094138;28;20483;-77
2021/12/01 04:52:17;;;;;;;24.23;7.70;;;;;;;-1.40;100.00;60661.38;5094227;28;20885;-78
2021/12/01 04:54:45;;;;;;;12.70;7.70;;;;;;;-1.58;100.00;60639.81;5093783;28;21040;-75
2021/12/01 04:57:18;;;;;;;30.30;14.80;;;;;;;-1.46;100.00;60657.50;5092624;28;20437;-76
2021/12/01 04:59:45;;;;;;;27.00;10.03;;;;;;;-2.08;100.00;60586.97;5093825;28;20442;-75
2021/12/01 05:02:14;;;;;;;35.03;14.10;;;;;;;-1.89;100.00;60609.56;5093998;28;20442;-77
2021/12/01 05:04:42;;;;;;;24.77;10.70;;;;;;;-3.18;100.00;60476.28;5093148;28;20499;-77
2021/12/01 05:07:11;;;;;;;43.67;17.20;;;;;;;-2.02;100.00;60593.84;5092680;28;20481;-76
2021/12/01 05:09:47;;;;;;;32.33;14.63;;;;;;;-1.66;100.00;60631.38;5095267;28;20437;-75
2021/12/01 05:12:17;;;;;;;17.50;8.67;;;;;;;-3.11;100.00;60478.69;5075595;28;20563;-78
2021/12/01 05:14:47;;;;;;;14.83;7.53;;;;;;;-1.95;100.00;60606.22;5093853;28;20453;-77
2021/12/01 05:17:20;;;;;;;16.73;7.90;;;;;;;-2.84;100.00;60514.69;5094101;28;20423;-78
2021/12/01 05:19:49;;;;;;;14.10;6.77;;;;;;;-3.19;100.00;60475.75;5094047;28;20444;-74
2021/12/01 05:22:18;;;;;;;16.77;8.63;;;;;;;-2.02;100.00;60588.31;5093456;28;20499;-75
2021/12/01 05:24:51;;;;;;;26.10;12.70;;;;;;;-2.05;100.00;60590.16;5093002;28;20243;-76
2021/12/01 05:27:22;;;;;;;25.73;10.33;;;;;;;-2.11;100.00;60584.31;5093157;28;20702;-78
2021/12/01 05:29:50;;;;;;;18.87;8.23;;;;;;;-2.00;100.00;60597.91;5093793;28;20442;-76
2021/12/01 05:32:18;;;;;;;11.77;6.47;;;;;;;-1.88;100.00;60608.09;5092927;28;20472;-75
2021/12/01 05:34:46;;;;;;;16.17;7.43;;;;;;;-1.76;100.00;60626.31;5074814;28;20441;-79
2021/12/01 05:37:15;;;;;;;31.13;12.33;;;;;;;-1.88;100.00;60608.09;5074633;28;20839;-76
2021/12/01 05:39:45;;;;;;;44.57;17.27;;;;;;;-2.17;100.00;60582.47;5093128;28;20446;-77
2021/12/01 05:42:16;;;;;;;25.10;11.17;;;;;;;-1.93;100.00;60602.84;5093219;28;20484;-76
2021/12/01 05:44:44;;;;;;;19.17;8.17;;;;;;;-2.67;100.00;60525.69;5093253;28;20446;-76
2021/12/01 05:47:12;;;;;;;11.52;5.68;;;;;;;-2.95;100.00;60491.13;5093430;28;20469;-76
2021/12/01 05:49:44;;;;;;;13.00;7.25;;;;;;;-2.14;100.00;60580.63;5102216;28;20196;-77
2021/12/01 05:52:14;;;;;;;13.70;6.65;;;;;;;-2.06;100.00;60594.06;5092938;28;20572;-74
2021/12/01 05:54:52;;;;;;;14.17;7.33;;;;;;;-3.80;100.00;60411.41;5074751;28;20231;-77
2021/12/01 05:57:23;;;;;;;16.77;7.90;;;;;;;-2.19;100.00;60577.84;5093685;28;20777;-76
2021/12/01 05:59:53;;;;;;;11.50;6.53;;;;;;;-1.96;100.00;60599.66;5092420;28;20440;-76
2021/12/01 06:02:20;;;;;;;20.30;8.67;;;;;;;-2.27;100.00;60567.41;5092819;28;20434;-77
2021/12/01 06:04:48;;;;;;;15.17;7.73;;;;;;;-1.93;100.00;60603.34;5093196;28;20445;-76
2021/12/01 06:07:22;;;;;;;16.87;8.23;;;;;;;-1.78;100.00;60623.69;5092783;28;20478;-77
2021/12/01 06:09:50;;;;;;;12.25;6.60;;;;;;;-3.85;100.00;60398.66;5092668;28;20547;-76
2021/12/01 06:12:17;;;;;;;26.63;9.45;;;;;;;-2.04;100.00;60591.19;5092107;28;20215;-76
2021/12/01 06:17:31;;;;;;;19.77;7.90;;;;;;;-1.88;100.00;60608.09;5091715;28;20219;-76
2021/12/01 06:20:00;;;;;;;21.27;9.97;;;;;;;-3.18;100.00;60476.28;5092968;28;21085;-77
2021/12/01 06:22:34;;;;;;;15.00;7.57;;;;;;;-1.64;100.00;60637.94;5092594;28;20446;-78
2021/12/01 06:25:05;;;;;;;15.70;9.07;;;;;;;-1.52;100.00;60646.16;5092840;28;20445;-75
2021/12/01 06:27:34;;;;;;;17.40;7.10;;;;;;;-1.48;100.00;60649.88;5092305;28;20482;-76
2021/12/01 06:30:04;;;;;;;17.90;7.10;;;;;;;-1.40;100.00;60653.88;5093635;28;20208;-75
2021/12/01 06:32:31;;;;;;;16.57;7.90;;;;;;;-2.52;100.00;60540.47;5092895;28;20449;-76
2021/12/01 06:35:05;;;;;;;20.33;9.50;;;;;;;-2.36;100.00;60567.88;5091937;28;20458;-78
2021/12/01 06:37:35;;;;;;;37.80;18.33;;;;;;;-2.64;100.00;60523.88;5073656;28;20504;-78
2021/12/01 06:40:04;;;;;;;42.23;17.07;;;;;;;-2.72;100.00;60532.34;5091714;28;20450;-77
2021/12/01 06:42:35;;;;;;;35.77;16.93;;;;;;;-2.43;100.00;60554.97;5091161;28;20883;-75
2021/12/01 06:45:04;;;;;;;38.33;15.70;;;;;;;-0.36;100.00;60768.41;5091618;28;20450;-77
2021/12/01 06:47:31;;;;;;;26.77;12.53;;;;;;;-0.21;100.00;60788.75;5091343;28;20474;-73
2021/12/01 06:49:59;;;;;;;25.77;12.13;;;;;;;-1.59;100.00;60638.25;5091632;28;20426;-75
2021/12/01 06:52:28;;;;;;;26.87;11.53;;;;;;;-0.61;100.00;60743.91;5073684;28;20450;-76
2021/12/01 06:54:57;;;;;;;25.03;12.30;;;;;;;-0.06;100.00;60799.66;5091500;28;20482;-76
2021/12/01 06:57:25;;;;;;;21.83;11.17;;;;;;;0.00;100.00;60806.00;5091363;28;20444;-74
2021/12/01 06:59:54;;;;;;;28.27;13.43;;;;;;;0.24;100.00;60833.94;5091486;28;20421;-77
2021/12/01 07:02:27;;;;;;;25.57;12.93;;;;;;;0.57;100.00;60865.88;5091296;28;20440;-77
2021/12/01 07:04:56;;;;;;;20.60;9.97;;;;;;;0.96;100.00;60909.19;5090957;28;20456;-78
2021/12/01 07:07:24;;;;;;;25.73;11.40;;;;;;;1.82;100.00;60997.94;5073773;28;20476;-76
2021/12/01 07:09:52;;;;;;;16.43;9.40;;;;;;;2.42;100.00;61061.66;5091977;28;20422;-78
2021/12/01 07:12:21;;;;;;;15.77;9.30;;;;;;;3.37;100.00;61161.53;5091411;28;20449;-77
2021/12/01 07:14:51;;;;;;;23.70;11.17;;;;;;;3.86;100.00;61216.19;5090647;28;20449;-78
2021/12/01 07:17:21;;;;;;;21.20;11.33;;;;;;;3.50;100.00;61185.44;5090582;28;20441;-78
2021/12/01 07:19:53;;;;;;;18.40;9.77;;;;;;;5.17;100.00;61352.03;5073258;28;20521;-76
2021/12/01 07:22:25;;;;;;;16.37;10.00;;;;;;;5.52;100.00;61391.84;5091713;28;20437;-78
2021/12/01 07:24:53;;;;;;;17.13;9.20;;;;;;;4.23;100.00;61253.00;5091657;28;20538;-77
2021/12/01 07:27:23;;;;;;;18.83;10.90;;;;;;;4.94;100.00;61327.53;5090846;28;20925;-77
2021/12/01 07:29:53;;;;;;;11.93;6.83;;;;;;;3.79;100.00;61206.19;5091102;28;20450;-75
2021/12/01 07:32:21;;;;;;;14.20;8.47;;;;;;;4.00;100.00;61228.56;5091978;28;20481;-76
2021/12/01 07:34:50;;;;;;;13.77;7.00;;;;;;;1.55;100.00;60971.81;5073079;28;20971;-74
2021/12/01 07:37:21;;;;;;;22.93;10.10;;;;;;;2.31;100.00;61049.97;5091264;28;20476;-75
2021/12/01 07:39:49;;;;;;;18.87;11.20;;;;;;;3.67;100.00;61193.44;5091642;28;20438;-75
2021/12/01 07:42:17;;;;;;;33.40;15.53;;;;;;;2.31;100.00;61055.00;5091744;28;20434;-76
2021/12/01 07:44:46;;;;;;;23.53;10.67;;;;;;;3.57;100.00;61182.81;5091184;28;21017;-76
2021/12/01 07:47:13;;;;;;;30.73;15.47;;;;;;;3.46;100.00;61173.63;5090974;28;20446;-77
2021/12/01 07:49:40;;;;;;;24.30;12.23;;;;;;;2.63;100.00;61082.88;5091273;28;20453;-76
2021/12/01 07:52:10;;;;;;;40.67;19.13;;;;;;;3.51;100.00;61178.41;5092126;28;20453;-76
2021/12/01 07:54:40;;;;;;;26.40;10.43;;;;;;;3.68;100.00;61199.56;5090857;28;20445;-75
2021/12/01 07:57:08;;;;;;;20.40;10.20;;;;;;;3.08;100.00;61130.72;5073292;28;20461;-78
2021/12/01 07:59:37;;;;;;;15.90;8.10;;;;;;;2.85;100.00;61106.81;5080570;28;20464;-77
2021/12/01 08:02:05;;;;;;;17.27;7.40;;;;;;;3.37;100.00;61162.06;5076057;28;20510;-76
2021/12/01 08:04:33;;;;;;;15.37;7.30;;;;;;;3.53;100.00;61183.59;5091375;28;20449;-77
2021/12/01 08:07:01;;;;;;;12.63;6.50;;;;;;;3.29;100.00;61153.03;5090794;28;20442;-78
2021/12/01 08:09:35;;;;;;;17.23;9.30;;;;;;;2.73;100.00;61088.47;5091240;28;20535;-75
2021/12/01 08:12:02;;;;;;;15.20;7.30;;;;;;;3.07;100.00;61132.16;5090669;28;20465;-76
2021/12/01 08:14:30;;;;;;;17.23;7.73;;;;;;;3.01;100.00;61123.28;5091356;28;20438;-77
2021/12/01 08:16:58;;;;;;;18.30;7.83;;;;;;;3.03;100.00;61125.41;5072775;28;20550;-77
2021/12/01 08:19:27;;;;;;;19.07;10.30;;;;;;;3.27;100.00;61155.94;5091202;28;20446;-75
2021/12/01 08:24:38;;;;;;;17.57;9.10;;;;;;;3.19;100.00;61144.91;5094525;28;20506;-77
2021/12/01 08:27:07;;;;;;;16.23;8.70;;;;;;;3.58;100.00;61181.34;5094693;28;20549;-78
2021/12/01 08:29:37;;;;;;;12.03;7.87;;;;;;;3.41;100.00;61166.31;5094148;28;20567;-76
2021/12/01 08:32:08;;;;;;;20.97;11.10;;;;;;;2.31;100.00;61049.97;5094192;28;20449;-79
2021/12/01 08:34:37;;;;;;;23.10;10.63;;;;;;;3.22;100.00;61145.59;5094385;28;20438;-75
2021/12/01 08:37:08;;;;;;;18.97;8.87;;;;;;;1.63;100.00;60975.28;5094067;28;20465;-75
2021/12/01 08:39:36;;;;;;;18.30;8.50;;;;;;;2.77;100.00;61090.22;5094292;28;20446;-77
2021/12/01 08:42:06;;;;;;;14.10;7.43;;;;;;;2.86;100.00;61092.75;5094359;28;20438;-77
2021/12/01 08:44:33;;;;;;;9.07;5.70;;;;;;;2.00;100.00;61016.50;5093990;28;20444;-77
2021/12/01 08:47:02;;;;;;;13.00;5.90;;;;;;;3.01;100.00;61128.31;5093301;28;20454;-76
2021/12/01 08:49:30;;;;;;;15.33;6.27;;;;;;;3.26;100.00;61150.38;5093712;28;20542;-76
2021/12/01 08:51:57;;;;;;;8.93;5.50;;;;;;;3.48;100.00;61173.25;5094113;28;20438;-76
2021/12/01 08:54:27;;;;;;;11.83;5.87;;;;;;;3.25;100.00;61153.81;5094121;28;20436;-74
2021/12/01 08:56:55;;;;;;;8.77;4.90;;;;;;;3.34;100.00;61160.88;5075563;28;20529;-78
2021/12/01 08:59:24;;;;;;;11.50;6.03;;;;;;;3.38;100.00;61165.13;5094802;28;20540;-76
2021/12/01 09:01:53;;;;;;;12.67;6.00;;;;;;;2.88;100.00;61119.53;5093765;28;20438;-77
2021/12/01 09:04:21;;;;;;;7.10;5.00;;;;;;;3.12;100.00;61138.00;5093811;28;20940;-77
2021/12/01 09:06:49;;;;;;;13.63;7.90;;;;;;;3.20;100.00;61140.97;5093541;28;20438;-76
2021/12/01 09:09:18;;;;;;;17.33;7.33;;;;;;;3.27;100.00;61151.44;5094035;28;20470;-77
2021/12/01 09:11:49;;;;;;;16.23;8.07;;;;;;;3.47;100.00;61174.69;5094445;28;20433;-75
2021/12/01 09:14:17;;;;;;;10.47;4.60;;;;;;;3.18;100.00;61144.38;5093906;28;20852;-78
2021/12/01 09:16:50;;;;;;;11.40;6.30;;;;;;;2.14;100.00;61031.38;5093736;28;20434;-75
2021/12/01 09:19:19;;;;;;;12.70;5.00;;;;;;;3.22;100.00;61148.13;5093779;28;20429;-78
2021/12/01 09:21:49;;;;;;;10.93;5.43;;;;;;;3.28;100.00;61157.00;5093389;28;20473;-75
2021/12/01 09:24:20;;;;;;;8.67;4.43;;;;;;;3.02;100.00;61119.81;5093650;28;20440;-77
2021/12/01 09:26:49;;;;;;;11.03;6.27;;;;;;;2.28;100.00;61046.78;5075141;28;20644;-76
2021/12/01 09:29:18;;;;;;;14.50;6.90;;;;;;;2.65;100.00;61085.00;5093139;28;20485;-79
2021/12/01 09:31:46;;;;;;;17.10;8.07;;;;;;;3.63;100.00;61191.16;5093350;28;20434;-75
2021/12/01 09:34:15;;;;;;;17.00;9.63;;;;;;;3.63;100.00;61189.19;5093136;28;20422;-77
2021/12/01 09:36:42;;;;;;;22.50;10.20;;;;;;;2.64;100.00;61086.47;5092897;28;20478;-78
2021/12/01 09:39:09;;;;;;;14.27;7.40;;;;;;;3.18;100.00;61144.38;5092849;28;20450;-79
2021/12/01 09:41:37;;;;;;;15.13;7.83;;;;;;;3.86;100.00;61213.13;5093053;28;20815;-76
2021/12/01 09:44:06;;;;;;;22.37;9.23;;;;;;;3.56;100.00;61186.25;5092441;28;20533;-76
2021/12/01 09:46:37;;;;;;;11.00;5.77;;;;;;;3.20;100.00;61143.47;5093233;28;20438;-76
2021/12/01 09:49:05;;;;;;;21.07;8.63;;;;;;;4.01;100.00;61234.66;5093220;28;20848;-77
2021/12/01 09:51:36;;;;;;;16.67;8.23;;;;;;;3.93;100.00;61221.09;5093297;28;20430;-77
2021/12/01 09:54:04;;;;;;;17.63;8.63;;;;;;;4.04;100.00;61232.81;5093336;28;20963;-77
2021/12/01 09:56:33;;;;;;;13.60;7.17;;;;;;;3.25;100.00;61154.34;5092822;28;20433;-78
2021/12/01 09:59:01;;;;;;;40.43;16.37;;;;;;;3.90;100.00;61219.91;5093309;28;20434;-78
2021/12/01 10:01:30;;;;;;;21.43;8.90;;;;;;;4.21;100.00;61250.88;5092621;28;20429;-75
2021/12/01 10:03:58;;;;;;;23.23;10.87;;;;;;;2.60;100.00;61079.72;5092304;28;20790;-77
2021/12/01 10:06:29;;;;;;;21.87;9.80;;;;;;;4.20;100.00;61252.34;5092320;28;20980;-78
2021/12/01 10:09:04;;;;;;;17.57;9.00;;;;;;;4.86;100.00;61313.97;5093346;28;20474;-78
2021/12/01 10:11:34;;;;;;;16.83;7.93;;;;;;;4.71;100.00;61303.56;5101345;28;20459;-76
2021/12/01 10:14:06;;;;;;;11.27;6.83;;;;;;;4.69;100.00;61300.94;5092382;28;20450;-78
2021/12/01 10:19:20;;;;;;;15.20;9.47;;;;;;;4.00;100.00;61231.06;5091832;28;21019;-77
2021/12/01 10:21:50;;;;;;;13.67;6.87;;;;;;;5.14;100.00;61348.84;5092114;28;20438;-77
2021/12/01 10:24:21;;;;;;;11.97;5.87;;;;;;;4.95;100.00;61329.13;5092232;28;20549;-79
2021/12/01 10:26:51;;;;;;;12.83;6.77;;;;;;;5.78;100.00;61417.03;5091863;28;20442;-81
2021/12/01 10:29:21;;;;;;;13.93;6.67;;;;;;;6.01;100.00;61443.03;5076495;28;20489;-77
2021/12/01 10:31:51;;;;;;;14.17;7.57;;;;;;;6.47;100.00;61492.09;5092653;28;20960;-78
2021/12/01 10:34:25;;;;;;;14.33;7.13;;;;;;;6.92;100.00;61537.59;5092676;28;20442;-78
2021/12/01 10:37:10;;;;;;;22.33;9.40;;;;;;;7.93;100.00;61646.91;5091437;28;20485;-76
2021/12/01 10:39:38;;;;;;;21.80;10.47;;;;;;;8.15;100.00;61672.94;5091999;28;20443;-77
2021/12/01 10:42:08;;;;;;;19.60;10.50;;;;;;;8.51;100.00;61703.84;5091792;28;20438;-76
2021/12/01 10:44:37;;;;;;;19.03;10.40;;;;;;;8.34;100.00;61688.19;5073948;28;20516;-77
2021/12/01 10:47:10;;;;;;;18.10;8.60;;;;;;;9.45;100.00;61808.38;5091332;28;20445;-78
2021/12/01 10:49:42;;;;;;;15.63;9.07;;;;;;;10.31;100.00;61897.91;5091793;28;20473;-80
2021/12/01 10:52:30;;;;;;;13.50;7.60;;;;;;;10.87;100.00;61957.34;5073990;28;20456;-77
2021/12/01 10:55:05;;;;;;;10.87;7.33;;;;;;;11.32;100.00;62005.03;5092393;28;20426;-79
2021/12/01 10:57:37;;;;;;;16.23;6.87;;;;;;;10.13;100.00;61881.16;5091696;28;20456;-79
2021/12/01 11:00:13;;;;;;;13.13;7.53;;;;;;;11.86;100.00;62062.97;5091561;28;20450;-78
2021/12/01 11:02:41;;;;;;;11.77;6.53;;;;;;;11.30;100.00;62003.44;5091771;28;20671;-78
2021/12/01 11:05:09;;;;;;;18.13;9.47;;;;;;;11.89;100.00;62066.72;5091391;28;20580;-77
2021/12/01 11:07:38;;;;;;;10.93;7.10;;;;;;;11.87;100.00;62069.16;5073359;28;20203;-78
2021/12/01 11:10:26;;;;;;;7.90;6.17;;;;;;;11.74;100.00;62052.66;5091191;28;20226;-78
2021/12/01 11:12:59;;;;;;;11.33;6.07;;;;;;;12.72;100.00;62154.69;5091445;28;20195;-78
2021/12/01 11:15:28;;;;;;;13.87;6.33;;;;;;;13.50;100.00;62243.09;5092263;28;20566;-79
2021/12/01 11:17:56;;;;;;;11.17;6.67;;;;;;;14.50;100.00;62344.38;5091522;28;20208;-78
2021/12/01 11:20:41;;;;;;;9.33;5.37;;;;;;;14.37;100.00;62331.47;5091029;28;20229;-79
2021/12/01 11:23:15;;;;;;;15.73;8.63;;;;;;;13.78;100.00;62268.06;5092102;28;20195;-76
2021/12/01 11:25:44;;;;;;;12.80;7.00;;;;;;;13.74;100.00;62271.44;5092032;28;20191;-76
2021/12/01 11:28:15;;;;;;;10.97;6.57;;;;;;;14.27;100.00;62320.72;5090922;28;20282;-78
2021/12/01 11:30:44;;;;;;;17.17;7.93;;;;;;;14.27;100.00;62323.28;5091504;28;20594;-76
2021/12/01 11:33:17;;;;;;;11.93;7.30;;;;;;;15.61;100.00;62463.84;5073075;28;20580;-77
2021/12/01 11:35:46;;;;;;;13.23;6.93;;;;;;;14.61;100.00;62356.22;5092409;28;20207;-78
2021/12/01 11:38:16;;;;;;;14.07;6.97;;;;;;;15.49;100.00;62456.06;5091275;28;20238;-77
2021/12/01 11:40:43;;;;;;;13.70;7.53;;;;;;;15.11;100.00;62407.44;5091507;28;20191;-78
2021/12/01 11:43:14;;;;;;;11.03;7.33;;;;;;;16.91;100.00;62607.94;5073226;28;20242;-79
2021/12/01 11:45:59;;;;;;;14.17;9.00;;;;;;;16.60;100.00;62569.41;5091665;28;20654;-80
2021/12/01 11:48:31;;;;;;;11.97;7.77;;;;;;;17.62;100.00;62679.38;5091360;28;20291;-79
2021/12/01 11:51:10;;;;;;;11.17;6.83;;;;;;;17.90;100.00;62711.63;5091040;28;20192;-78
2021/12/01 11:53:43;;;;;;;13.57;7.80;;;;;;;18.21;100.00;62741.97;5092091;28;20195;-79
2021/12/01 11:56:18;;;;;;;12.33;7.40;;;;;;;16.87;100.00;62595.94;5091179;28;20603;-78
2021/12/01 11:58:58;;;;;;;13.80;7.67;;;;;;;18.11;100.00;62728.59;5093222;28;20203;-78
2021/12/01 12:01:45;;;;;;;13.17;7.67;;;;;;;18.54;100.00;62777.59;5095385;28;20203;-78
2021/12/01 12:04:27;;;;;;;12.50;7.83;;;;;;;16.68;100.00;62581.13;5091394;28;20530;-77